sensor_id;sensor_type;location;lat;lon;timestamp;pressure;altitude;pressure_sealevel;temperature;humidity
51986;BME280;38002;53.296;6.600;2023-11-18T00:00:47;102626.47;;;1.76;100.00
51986;BME280;38002;53.296;6.600;2023-11-18T00:05:48;102624.66;;;1.76;100.00
51986;BME280;38002;53.296;6.600;2023-11-18T00:10:48;102629.16;;;1.76;100.00
51986;BME280;38002;53.296;6.600;2023-11-18T00:15:48;102625.72;;;1.72;100.00
51986;BME280;38002;53.296;6.600;2023-11-18T00:20:49;102629.34;;;1.71;100.00
51986;BME280;38002;53.296;6.600;2023-11-18T00:25:50;102617.78;;;1.69;100.00
51986;BME280;38002;53.296;6.600;2023-11-18T00:30:52;102623.16;;;1.69;100.00
51986;BME280;38002;53.296;6.600;2023-11-18T00:35:53;102624.94;;;1.69;100.00
51986;BME280;38002;53.296;6.600;2023-11-18T00:40:53;102626.75;;;1.68;100.00
51986;BME280;38002;53.296;6.600;2023-11-18T00:45:54;102624.06;;;1.68;100.00
51986;BME280;38002;53.296;6.600;2023-11-18T00:50:54;102620.38;;;1.72;100.00
51986;BME280;38002;53.296;6.600;2023-11-18T00:55:56;102622.91;;;1.75;100.00
51986;BME280;38002;53.296;6.600;2023-11-18T01:00:56;102620.16;;;1.77;100.00
51986;BME280;38002;53.296;6.600;2023-11-18T01:05:57;102614.78;;;1.77;100.00
51986;BME280;38002;53.296;6.600;2023-11-18T01:10:57;102619.34;;;1.75;100.00
51986;BME280;38002;53.296;6.600;2023-11-18T01:15:58;102618.47;;;1.74;100.00
51986;BME280;38002;53.296;6.600;2023-11-18T01:20:58;102630.03;;;1.76;100.00
51986;BME280;38002;53.296;6.600;2023-11-18T01:25:59;102619.22;;;1.78;100.00
51986;BME280;38002;53.296;6.600;2023-11-18T01:31:00;102624.53;;;1.79;100.00
51986;BME280;38002;53.296;6.600;2023-11-18T01:36:00;102626.19;;;1.82;100.00
51986;BME280;38002;53.296;6.600;2023-11-18T01:41:01;102618.97;;;1.84;100.00
51986;BME280;38002;53.296;6.600;2023-11-18T01:46:05;102615.28;;;1.87;100.00
51986;BME280;38002;53.296;6.600;2023-11-18T01:51:07;102606.44;;;1.85;100.00
51986;BME280;38002;53.296;6.600;2023-11-18T01:56:10;102601.06;;;1.85;100.00
51986;BME280;38002;53.296;6.600;2023-11-18T02:01:11;102602.94;;;1.82;100.00
51986;BME280;38002;53.296;6.600;2023-11-18T02:06:13;102598.44;;;1.83;100.00
51986;BME280;38002;53.296;6.600;2023-11-18T02:16:52;102602.00;;;1.83;100.00
51986;BME280;38002;53.296;6.600;2023-11-18T02:21:55;102601.06;;;1.85;100.00
51986;BME280;38002;53.296;6.600;2023-11-18T02:26:57;102610.94;;;1.84;100.00
51986;BME280;38002;53.296;6.600;2023-11-18T02:32:00;102608.25;;;1.84;100.00
51986;BME280;38002;53.296;6.600;2023-11-18T02:37:05;102605.63;;;1.82;100.00
51986;BME280;38002;53.296;6.600;2023-11-18T02:42:07;102599.47;;;1.80;100.00
51986;BME280;38002;53.296;6.600;2023-11-18T02:47:08;102594.19;;;1.77;100.00
51986;BME280;38002;53.296;6.600;2023-11-18T02:52:09;102592.47;;;1.76;100.00
51986;BME280;38002;53.296;6.600;2023-11-18T02:57:10;102582.81;;;1.72;100.00
51986;BME280;38002;53.296;6.600;2023-11-18T03:02:11;102580.97;;;1.73;100.00
51986;BME280;38002;53.296;6.600;2023-11-18T03:07:11;102580.06;;;1.74;100.00
51986;BME280;38002;53.296;6.600;2023-11-18T03:12:12;102575.38;;;1.79;100.00
51986;BME280;38002;53.296;6.600;2023-11-18T03:17:12;102556.34;;;1.85;100.00
51986;BME280;38002;53.296;6.600;2023-11-18T03:22:13;102560.47;;;1.94;100.00
51986;BME280;38002;53.296;6.600;2023-11-18T03:27:13;102568.13;;;2.03;100.00
51986;BME280;38002;53.296;6.600;2023-11-18T03:32:14;102566.91;;;2.10;100.00
51986;BME280;38002;53.296;6.600;2023-11-18T03:37:14;102565.69;;;2.17;100.00
51986;BME280;38002;53.296;6.600;2023-11-18T03:42:15;102565.50;;;2.21;100.00
51986;BME280;38002;53.296;6.600;2023-11-18T03:47:15;102552.81;;;2.25;100.00
51986;BME280;38002;53.296;6.600;2023-11-18T03:52:16;102560.81;;;2.26;100.00
51986;BME280;38002;53.296;6.600;2023-11-18T03:57:16;102558.06;;;2.28;100.00
51986;BME280;38002;53.296;6.600;2023-11-18T04:02:17;102532.94;;;2.29;100.00
51986;BME280;38002;53.296;6.600;2023-11-18T04:07:17;102505.16;;;2.30;100.00
51986;BME280;38002;53.296;6.600;2023-11-18T04:12:18;102511.22;;;2.35;100.00
51986;BME280;38002;53.296;6.600;2023-11-18T04:17:18;102498.72;;;2.34;100.00
51986;BME280;38002;53.296;6.600;2023-11-18T04:22:19;102499.44;;;2.38;100.00
51986;BME280;38002;53.296;6.600;2023-11-18T04:27:19;102491.34;;;2.39;100.00
51986;BME280;38002;53.296;6.600;2023-11-18T04:32:19;102488.50;;;2.42;100.00
51986;BME280;38002;53.296;6.600;2023-11-18T04:37:20;102483.06;;;2.44;100.00
51986;BME280;38002;53.296;6.600;2023-11-18T04:42:20;102490.09;;;2.46;100.00
51986;BME280;38002;53.296;6.600;2023-11-18T04:47:21;102484.63;;;2.49;100.00
51986;BME280;38002;53.296;6.600;2023-11-18T04:52:22;102483.53;;;2.53;100.00
51986;BME280;38002;53.296;6.600;2023-11-18T04:57:22;102477.22;;;2.54;100.00
51986;BME280;38002;53.296;6.600;2023-11-18T05:02:22;102470.88;;;2.55;100.00
51986;BME280;38002;53.296;6.600;2023-11-18T05:07:23;102466.34;;;2.57;100.00
51986;BME280;38002;53.296;6.600;2023-11-18T05:12:23;102459.22;;;2.56;100.00
51986;BME280;38002;53.296;6.600;2023-11-18T05:17:24;102461.69;;;2.61;100.00
51986;BME280;38002;53.296;6.600;2023-11-18T05:22:26;102456.25;;;2.62;100.00
51986;BME280;38002;53.296;6.600;2023-11-18T05:27:26;102454.34;;;2.64;100.00
51986;BME280;38002;53.296;6.600;2023-11-18T05:32:28;102458.78;;;2.65;100.00
51986;BME280;38002;53.296;6.600;2023-11-18T05:37:28;102472.16;;;2.67;100.00
51986;BME280;38002;53.296;6.600;2023-11-18T05:42:29;102468.66;;;2.65;100.00
51986;BME280;38002;53.296;6.600;2023-11-18T05:47:30;102469.53;;;2.65;100.00
51986;BME280;38002;53.296;6.600;2023-11-18T05:52:31;102464.00;;;2.68;100.00
51986;BME280;38002;53.296;6.600;2023-11-18T05:57:32;102464.81;;;2.70;100.00
51986;BME280;38002;53.296;6.600;2023-11-18T06:02:33;102452.25;;;2.71;100.00
51986;BME280;38002;53.296;6.600;2023-11-18T06:07:34;102452.81;;;2.78;100.00
51986;BME280;38002;53.296;6.600;2023-11-18T06:12:35;102444.63;;;2.81;100.00
51986;BME280;38002;53.296;6.600;2023-11-18T06:17:37;102450.78;;;2.83;100.00
51986;BME280;38002;53.296;6.600;2023-11-18T06:22:37;102444.34;;;2.87;100.00
51986;BME280;38002;53.296;6.600;2023-11-18T06:27:38;102429.31;;;2.83;100.00
51986;BME280;38002;53.296;6.600;2023-11-18T06:32:38;102429.03;;;2.89;100.00
51986;BME280;38002;53.296;6.600;2023-11-18T06:37:39;102430.63;;;2.93;100.00
51986;BME280;38002;53.296;6.600;2023-11-18T06:42:39;102439.28;;;2.98;100.00
51986;BME280;38002;53.296;6.600;2023-11-18T06:47:40;102423.97;;;3.00;100.00
51986;BME280;38002;53.296;6.600;2023-11-18T06:52:44;102426.28;;;3.07;100.00
51986;BME280;38002;53.296;6.600;2023-11-18T06:57:45;102424.31;;;3.11;100.00
51986;BME280;38002;53.296;6.600;2023-11-18T07:02:46;102434.94;;;3.14;100.00
51986;BME280;38002;53.296;6.600;2023-11-18T07:07:47;102442.03;;;3.15;100.00
51986;BME280;38002;53.296;6.600;2023-11-18T07:12:47;102442.66;;;3.20;100.00
51986;BME280;38002;53.296;6.600;2023-11-18T07:17:48;102454.06;;;3.25;100.00
51986;BME280;38002;53.296;6.600;2023-11-18T07:22:48;102456.59;;;3.28;100.00
51986;BME280;38002;53.296;6.600;2023-11-18T07:27:49;102449.19;;;3.33;100.00
51986;BME280;38002;53.296;6.600;2023-11-18T07:32:49;102438.34;;;3.35;100.00
51986;BME280;38002;53.296;6.600;2023-11-18T07:37:51;102454.19;;;3.41;100.00
51986;BME280;38002;53.296;6.600;2023-11-18T07:42:52;102436.84;;;3.46;100.00
51986;BME280;38002;53.296;6.600;2023-11-18T07:47:52;102436.84;;;3.46;100.00
51986;BME280;38002;53.296;6.600;2023-11-18T07:52:54;102438.44;;;3.50;100.00
51986;BME280;38002;53.296;6.600;2023-11-18T07:57:55;102445.50;;;3.53;100.00
51986;BME280;38002;53.296;6.600;2023-11-18T08:02:57;102435.50;;;3.55;100.00
51986;BME280;38002;53.296;6.600;2023-11-18T08:08:00;102435.50;;;3.55;100.00
51986;BME280;38002;53.296;6.600;2023-11-18T08:13:00;102431.81;;;3.57;100.00
51986;BME280;38002;53.296;6.600;2023-11-18T08:18:02;102424.34;;;3.62;100.00
51986;BME280;38002;53.296;6.600;2023-11-18T08:23:03;102424.22;;;3.65;100.00
51986;BME280;38002;53.296;6.600;2023-11-18T08:28:08;102411.47;;;3.69;100.00
51986;BME280;38002;53.296;6.600;2023-11-18T08:33:08;102407.50;;;3.76;100.00
51986;BME280;38002;53.296;6.600;2023-11-18T08:38:09;102381.31;;;3.80;100.00
51986;BME280;38002;53.296;6.600;2023-11-18T08:43:12;102372.16;;;3.84;100.00
51986;BME280;38002;53.296;6.600;2023-11-18T08:48:13;102369.03;;;3.91;100.00
51986;BME280;38002;53.296;6.600;2023-11-18T08:53:13;102354.38;;;3.97;100.00
51986;BME280;38002;53.296;6.600;2023-11-18T08:58:18;102338.13;;;3.98;100.00
51986;BME280;38002;53.296;6.600;2023-11-18T09:03:27;102324.25;;;4.06;100.00
51986;BME280;38002;53.296;6.600;2023-11-18T09:08:36;102323.94;;;4.12;100.00
51986;BME280;38002;53.296;6.600;2023-11-18T09:13:37;102313.97;;;4.14;100.00
51986;BME280;38002;53.296;6.600;2023-11-18T09:18:40;102316.28;;;4.20;100.00
51986;BME280;38002;53.296;6.600;2023-11-18T09:23:43;102313.25;;;4.26;100.00
51986;BME280;38002;53.296;6.600;2023-11-18T09:28:44;102318.13;;;4.35;100.00
51986;BME280;38002;53.296;6.600;2023-11-18T09:33:45;102317.00;;;4.39;100.00
51986;BME280;38002;53.296;6.600;2023-11-18T09:38:52;102318.56;;;4.43;100.00
51986;BME280;38002;53.296;6.600;2023-11-18T09:43:54;102316.50;;;4.48;100.00
51986;BME280;38002;53.296;6.600;2023-11-18T10:00:03;102285.13;;;4.47;100.00
51986;BME280;38002;53.296;6.600;2023-11-18T10:05:23;102283.28;;;4.48;100.00
51986;BME280;38002;53.296;6.600;2023-11-18T10:10:26;102276.09;;;4.48;100.00
51986;BME280;38002;53.296;6.600;2023-11-18T10:15:36;102286.84;;;4.48;100.00
51986;BME280;38002;53.296;6.600;2023-11-18T10:25:48;102264.34;;;4.49;100.00
51986;BME280;38002;53.296;6.600;2023-11-18T10:30:55;102237.31;;;4.51;100.00
51986;BME280;38002;53.296;6.600;2023-11-18T10:35:59;102234.56;;;4.52;100.00
51986;BME280;38002;53.296;6.600;2023-11-18T10:41:04;102222.91;;;4.52;100.00
51986;BME280;38002;53.296;6.600;2023-11-18T10:46:06;102206.75;;;4.52;100.00
51986;BME280;38002;53.296;6.600;2023-11-18T10:51:17;102222.22;;;4.48;100.00
51986;BME280;38002;53.296;6.600;2023-11-18T10:56:20;102220.56;;;4.46;100.00
51986;BME280;38002;53.296;6.600;2023-11-18T11:01:30;102195.44;;;4.45;100.00
51986;BME280;38002;53.296;6.600;2023-11-18T11:06:34;102176.50;;;4.47;100.00
51986;BME280;38002;53.296;6.600;2023-11-18T11:11:40;102167.50;;;4.48;100.00
51986;BME280;38002;53.296;6.600;2023-11-18T11:16:54;102162.00;;;4.49;100.00
51986;BME280;38002;53.296;6.600;2023-11-18T11:21:57;102144.88;;;4.50;100.00
51986;BME280;38002;53.296;6.600;2023-11-18T11:32:25;102128.63;;;4.52;100.00
51986;BME280;38002;53.296;6.600;2023-11-18T11:37:32;102124.88;;;4.54;100.00
51986;BME280;38002;53.296;6.600;2023-11-18T11:42:35;102109.78;;;4.52;100.00
51986;BME280;38002;53.296;6.600;2023-11-18T11:47:36;102113.34;;;4.52;100.00
51986;BME280;38002;53.296;6.600;2023-11-18T11:52:46;102112.38;;;4.53;100.00
51986;BME280;38002;53.296;6.600;2023-11-18T11:57:52;102115.84;;;4.55;100.00
51986;BME280;38002;53.296;6.600;2023-11-18T12:03:00;102113.63;;;4.62;100.00
51986;BME280;38002;53.296;6.600;2023-11-18T12:08:08;102100.88;;;4.66;100.00
51986;BME280;38002;53.296;6.600;2023-11-18T12:13:13;102097.03;;;4.70;100.00
51986;BME280;38002;53.296;6.600;2023-11-18T12:18:16;102107.53;;;4.74;100.00
51986;BME280;38002;53.296;6.600;2023-11-18T12:23:17;102092.19;;;4.75;100.00
51986;BME280;38002;53.296;6.600;2023-11-18T12:28:18;102085.75;;;4.77;100.00
51986;BME280;38002;53.296;6.600;2023-11-18T12:33:26;102068.44;;;4.81;100.00
51986;BME280;38002;53.296;6.600;2023-11-18T12:49:18;102023.50;;;4.96;100.00
51986;BME280;38002;53.296;6.600;2023-11-18T12:54:29;102011.56;;;5.00;100.00
51986;BME280;38002;53.296;6.600;2023-11-18T12:59:30;102013.28;;;5.01;100.00
51986;BME280;38002;53.296;6.600;2023-11-18T13:04:31;102014.25;;;5.00;100.00
51986;BME280;38002;53.296;6.600;2023-11-18T13:09:32;102018.50;;;5.04;100.00
51986;BME280;38002;53.296;6.600;2023-11-18T13:14:38;102012.22;;;5.03;100.00
51986;BME280;38002;53.296;6.600;2023-11-18T13:19:39;101992.56;;;5.01;100.00
51986;BME280;38002;53.296;6.600;2023-11-18T13:24:41;101989.13;;;4.99;100.00
51986;BME280;38002;53.296;6.600;2023-11-18T13:29:47;101983.91;;;4.96;100.00
51986;BME280;38002;53.296;6.600;2023-11-18T13:34:51;101959.47;;;4.99;100.00
51986;BME280;38002;53.296;6.600;2023-11-18T13:39:55;101956.56;;;5.02;100.00
51986;BME280;38002;53.296;6.600;2023-11-18T13:45:00;101928.66;;;5.03;100.00
51986;BME280;38002;53.296;6.600;2023-11-18T13:50:07;101917.97;;;5.02;100.00
51986;BME280;38002;53.296;6.600;2023-11-18T13:55:12;101903.91;;;5.11;100.00
51986;BME280;38002;53.296;6.600;2023-11-18T14:00:17;101883.84;;;5.15;100.00
51986;BME280;38002;53.296;6.600;2023-11-18T14:05:18;101854.97;;;5.17;100.00
51986;BME280;38002;53.296;6.600;2023-11-18T14:10:19;101831.44;;;5.19;100.00
51986;BME280;38002;53.296;6.600;2023-11-18T14:15:21;101805.44;;;5.18;100.00
51986;BME280;38002;53.296;6.600;2023-11-18T14:20:21;101787.44;;;5.19;100.00
51986;BME280;38002;53.296;6.600;2023-11-18T14:25:22;101775.59;;;5.21;100.00
51986;BME280;38002;53.296;6.600;2023-11-18T14:30:24;101754.78;;;5.23;100.00
51986;BME280;38002;53.296;6.600;2023-11-18T14:35:26;101737.00;;;5.21;100.00
51986;BME280;38002;53.296;6.600;2023-11-18T14:40:26;101709.81;;;5.24;100.00
51986;BME280;38002;53.296;6.600;2023-11-18T14:45:28;101725.88;;;5.25;100.00
51986;BME280;38002;53.296;6.600;2023-11-18T14:50:28;101719.41;;;5.28;100.00
51986;BME280;38002;53.296;6.600;2023-11-18T14:55:29;101676.41;;;5.26;100.00
51986;BME280;38002;53.296;6.600;2023-11-18T15:00:30;101678.88;;;5.29;100.00
51986;BME280;38002;53.296;6.600;2023-11-18T15:05:34;101667.13;;;5.30;100.00
51986;BME280;38002;53.296;6.600;2023-11-18T15:10:35;101649.06;;;5.31;100.00
51986;BME280;38002;53.296;6.600;2023-11-18T15:15:37;101644.69;;;5.30;100.00
51986;BME280;38002;53.296;6.600;2023-11-18T15:20:38;101614.16;;;5.29;100.00
51986;BME280;38002;53.296;6.600;2023-11-18T15:25:43;101598.50;;;5.34;100.00
51986;BME280;38002;53.296;6.600;2023-11-18T15:30:43;101593.22;;;5.33;100.00
51986;BME280;38002;53.296;6.600;2023-11-18T15:35:47;101610.03;;;5.36;100.00
51986;BME280;38002;53.296;6.600;2023-11-18T15:40:48;101568.38;;;5.40;100.00
51986;BME280;38002;53.296;6.600;2023-11-18T15:45:50;101548.63;;;5.40;100.00
51986;BME280;38002;53.296;6.600;2023-11-18T15:50:50;101532.34;;;5.41;100.00
51986;BME280;38002;53.296;6.600;2023-11-18T15:55:51;101540.22;;;5.44;100.00
51986;BME280;38002;53.296;6.600;2023-11-18T16:00:52;101519.41;;;5.46;100.00
51986;BME280;38002;53.296;6.600;2023-11-18T16:05:53;101490.47;;;5.48;100.00
51986;BME280;38002;53.296;6.600;2023-11-18T16:10:55;101471.38;;;5.52;100.00
51986;BME280;38002;53.296;6.600;2023-11-18T16:15:55;101463.28;;;5.52;100.00
51986;BME280;38002;53.296;6.600;2023-11-18T16:20:56;101457.88;;;5.52;100.00
51986;BME280;38002;53.296;6.600;2023-11-18T16:25:57;101441.47;;;5.55;100.00
51986;BME280;38002;53.296;6.600;2023-11-18T16:30:59;101440.34;;;5.57;100.00
51986;BME280;38002;53.296;6.600;2023-11-18T16:36:01;101408.75;;;5.59;100.00
51986;BME280;38002;53.296;6.600;2023-11-18T16:41:02;101402.50;;;5.59;100.00
51986;BME280;38002;53.296;6.600;2023-11-18T16:46:03;101416.34;;;5.65;100.00
51986;BME280;38002;53.296;6.600;2023-11-18T16:51:05;101412.69;;;5.66;100.00
51986;BME280;38002;53.296;6.600;2023-11-18T16:56:07;101404.25;;;5.71;100.00
51986;BME280;38002;53.296;6.600;2023-11-18T17:01:08;101379.84;;;5.72;100.00
51986;BME280;38002;53.296;6.600;2023-11-18T17:06:09;101353.47;;;5.76;100.00
51986;BME280;38002;53.296;6.600;2023-11-18T17:11:10;101343.44;;;5.78;100.00
51986;BME280;38002;53.296;6.600;2023-11-18T17:16:11;101340.59;;;5.79;100.00
51986;BME280;38002;53.296;6.600;2023-11-18T17:21:11;101325.16;;;5.81;100.00
51986;BME280;38002;53.296;6.600;2023-11-18T17:26:12;101309.59;;;5.85;100.00
51986;BME280;38002;53.296;6.600;2023-11-18T17:31:12;101303.97;;;5.88;100.00
51986;BME280;38002;53.296;6.600;2023-11-18T17:36:13;101314.66;;;5.89;100.00
51986;BME280;38002;53.296;6.600;2023-11-18T17:41:14;101308.16;;;5.92;100.00
51986;BME280;38002;53.296;6.600;2023-11-18T17:46:14;101303.50;;;5.94;100.00
51986;BME280;38002;53.296;6.600;2023-11-18T17:51:15;101264.84;;;5.93;100.00
51986;BME280;38002;53.296;6.600;2023-11-18T17:56:15;101261.78;;;5.98;100.00
51986;BME280;38002;53.296;6.600;2023-11-18T18:01:16;101248.19;;;6.00;100.00
51986;BME280;38002;53.296;6.600;2023-11-18T18:06:17;101230.00;;;6.02;100.00
51986;BME280;38002;53.296;6.600;2023-11-18T18:11:17;101232.59;;;6.03;100.00
51986;BME280;38002;53.296;6.600;2023-11-18T18:16:18;101245.09;;;6.04;100.00
51986;BME280;38002;53.296;6.600;2023-11-18T18:21:18;101225.97;;;6.07;100.00
51986;BME280;38002;53.296;6.600;2023-11-18T18:26:19;101205.09;;;6.09;100.00
51986;BME280;38002;53.296;6.600;2023-11-18T18:31:20;101201.41;;;6.10;100.00
51986;BME280;38002;53.296;6.600;2023-11-18T18:36:20;101186.94;;;6.11;100.00
51986;BME280;38002;53.296;6.600;2023-11-18T18:41:21;101183.25;;;6.12;100.00
51986;BME280;38002;53.296;6.600;2023-11-18T18:46:21;101170.47;;;6.14;100.00
51986;BME280;38002;53.296;6.600;2023-11-18T18:51:22;101148.75;;;6.16;100.00
51986;BME280;38002;53.296;6.600;2023-11-18T18:56:22;101162.84;;;6.19;100.00
51986;BME280;38002;53.296;6.600;2023-11-18T19:01:24;101142.97;;;6.20;100.00
51986;BME280;38002;53.296;6.600;2023-11-18T19:06:26;101127.50;;;6.22;100.00
51986;BME280;38002;53.296;6.600;2023-11-18T19:11:28;101140.75;;;6.25;100.00
51986;BME280;38002;53.296;6.600;2023-11-18T19:16:28;101143.31;;;6.27;100.00
51986;BME280;38002;53.296;6.600;2023-11-18T19:21:28;101132.50;;;6.27;100.00
51986;BME280;38002;53.296;6.600;2023-11-18T19:26:29;101118.63;;;6.31;100.00
51986;BME280;38002;53.296;6.600;2023-11-18T19:31:29;101096.75;;;6.34;100.00
51986;BME280;38002;53.296;6.600;2023-11-18T19:36:30;101099.22;;;6.37;100.00
51986;BME280;38002;53.296;6.600;2023-11-18T19:41:30;101066.53;;;6.41;100.00
51986;BME280;38002;53.296;6.600;2023-11-18T19:46:31;101068.09;;;6.43;100.00
51986;BME280;38002;53.296;6.600;2023-11-18T19:51:31;101056.91;;;6.48;100.00
51986;BME280;38002;53.296;6.600;2023-11-18T19:56:32;101033.34;;;6.50;100.00
51986;BME280;38002;53.296;6.600;2023-11-18T20:01:32;101015.03;;;6.53;100.00
51986;BME280;38002;53.296;6.600;2023-11-18T20:06:33;101031.56;;;6.60;100.00
51986;BME280;38002;53.296;6.600;2023-11-18T20:11:34;101010.53;;;6.63;100.00
51986;BME280;38002;53.296;6.600;2023-11-18T20:16:35;101014.53;;;6.69;100.00
51986;BME280;38002;53.296;6.600;2023-11-18T20:21:37;100998.94;;;6.72;100.00
51986;BME280;38002;53.296;6.600;2023-11-18T20:26:37;100981.31;;;6.78;100.00
51986;BME280;38002;53.296;6.600;2023-11-18T20:31:38;100981.91;;;6.81;100.00
51986;BME280;38002;53.296;6.600;2023-11-18T20:36:38;100982.97;;;6.90;100.00
51986;BME280;38002;53.296;6.600;2023-11-18T20:41:39;100977.72;;;6.98;100.00
51986;BME280;38002;53.296;6.600;2023-11-18T20:46:40;100964.03;;;7.00;100.00
51986;BME280;38002;53.296;6.600;2023-11-18T20:51:41;100977.47;;;7.11;100.00
51986;BME280;38002;53.296;6.600;2023-11-18T20:56:42;100954.28;;;7.18;100.00
51986;BME280;38002;53.296;6.600;2023-11-18T21:01:42;100943.63;;;7.26;100.00
51986;BME280;38002;53.296;6.600;2023-11-18T21:06:42;100920.31;;;7.35;100.00
51986;BME280;38002;53.296;6.600;2023-11-18T21:11:43;100922.47;;;7.41;100.00
51986;BME280;38002;53.296;6.600;2023-11-18T21:16:43;100912.09;;;7.46;100.00
51986;BME280;38002;53.296;6.600;2023-11-18T21:21:47;100914.19;;;7.52;100.00
51986;BME280;38002;53.296;6.600;2023-11-18T21:26:48;100900.69;;;7.61;100.00
51986;BME280;38002;53.296;6.600;2023-11-18T21:31:48;100886.31;;;7.61;100.00
51986;BME280;38002;53.296;6.600;2023-11-18T21:36:49;100886.59;;;7.67;100.00
51986;BME280;38002;53.296;6.600;2023-11-18T21:41:50;100884.47;;;7.71;100.00
51986;BME280;38002;53.296;6.600;2023-11-18T21:46:50;100869.34;;;7.78;100.00
51986;BME280;38002;53.296;6.600;2023-11-18T21:51:51;100854.50;;;7.82;100.00
51986;BME280;38002;53.296;6.600;2023-11-18T21:56:52;100850.50;;;7.86;100.00
51986;BME280;38002;53.296;6.600;2023-11-18T22:01:52;100857.63;;;7.97;100.00
51986;BME280;38002;53.296;6.600;2023-11-18T22:06:54;100847.91;;;8.04;100.00
51986;BME280;38002;53.296;6.600;2023-11-18T22:11:55;100843.34;;;8.14;100.00
51986;BME280;38002;53.296;6.600;2023-11-18T22:16:56;100839.19;;;8.19;100.00
51986;BME280;38002;53.296;6.600;2023-11-18T22:21:57;100825.63;;;8.29;100.00
51986;BME280;38002;53.296;6.600;2023-11-18T22:26:57;100822.03;;;8.38;100.00
51986;BME280;38002;53.296;6.600;2023-11-18T22:31:58;100822.41;;;8.53;100.00
51986;BME280;38002;53.296;6.600;2023-11-18T22:36:58;100800.50;;;8.64;100.00
51986;BME280;38002;53.296;6.600;2023-11-18T22:41:59;100807.84;;;8.81;100.00
51986;BME280;38002;53.296;6.600;2023-11-18T22:46:59;100804.22;;;8.90;100.00
51986;BME280;38002;53.296;6.600;2023-11-18T22:52:03;100799.03;;;8.97;100.00
51986;BME280;38002;53.296;6.600;2023-11-18T22:57:04;100793.78;;;9.13;100.00
51986;BME280;38002;53.296;6.600;2023-11-18T23:02:05;100759.97;;;9.25;100.00
51986;BME280;38002;53.296;6.600;2023-11-18T23:07:06;100773.84;;;9.40;100.00
51986;BME280;38002;53.296;6.600;2023-11-18T23:12:06;100772.75;;;9.50;100.00
51986;BME280;38002;53.296;6.600;2023-11-18T23:17:07;100761.31;;;9.65;100.00
51986;BME280;38002;53.296;6.600;2023-11-18T23:22:09;100761.53;;;9.71;100.00
51986;BME280;38002;53.296;6.600;2023-11-18T23:27:11;100761.75;;;9.78;100.00
51986;BME280;38002;53.296;6.600;2023-11-18T23:32:11;100754.84;;;9.83;100.00
51986;BME280;38002;53.296;6.600;2023-11-18T23:37:12;100759.63;;;9.89;100.00
51986;BME280;38002;53.296;6.600;2023-11-18T23:42:13;100752.22;;;9.99;100.00
51986;BME280;38002;53.296;6.600;2023-11-18T23:47:14;100740.13;;;10.20;100.00
51986;BME280;38002;53.296;6.600;2023-11-18T23:52:14;100729.19;;;10.45;100.00
51986;BME280;38002;53.296;6.600;2023-11-18T23:57:15;100720.91;;;10.63;100.00
